createdAt,value
2023-03-19T00:01:06.561Z,77
2023-03-19T00:03:06.166Z,77
2023-03-19T00:05:06.530Z,77
2023-03-19T00:07:08.097Z,77
2023-03-19T00:09:09.313Z,77
2023-03-19T00:11:08.080Z,77
2023-03-19T00:13:06.752Z,77
2023-03-19T00:15:06.522Z,78
2023-03-19T00:17:12.896Z,78
2023-03-19T00:19:06.492Z,79
2023-03-19T00:21:06.508Z,79
2023-03-19T00:23:05.756Z,79
2023-03-19T00:25:06.140Z,79
2023-03-19T00:27:08.128Z,79
2023-03-19T00:29:09.537Z,79
2023-03-19T00:31:06.521Z,79
2023-03-19T00:33:06.145Z,79
2023-03-19T00:35:09.546Z,79
2023-03-19T00:37:06.543Z,79
2023-03-19T00:39:09.516Z,80
2023-03-19T00:41:06.533Z,80
2023-03-19T00:43:06.440Z,80
2023-03-19T00:45:09.345Z,81
2023-03-19T00:47:06.505Z,81
2023-03-19T00:49:05.785Z,81
2023-03-19T00:51:09.326Z,81
2023-03-19T00:53:06.468Z,81
2023-03-19T00:55:06.772Z,81
2023-03-19T00:57:09.652Z,81
2023-03-19T00:59:08.020Z,81
2023-03-19T01:01:06.573Z,81
2023-03-19T01:03:06.498Z,81
2023-03-19T01:05:06.468Z,81
2023-03-19T01:07:06.143Z,81
2023-03-19T01:09:06.542Z,81
2023-03-19T01:11:10.799Z,81
2023-03-19T01:13:06.480Z,81
2023-03-19T01:15:09.533Z,81
2023-03-19T01:17:06.096Z,81
2023-03-19T01:19:08.109Z,81
2023-03-19T01:21:09.573Z,81
2023-03-19T01:23:09.343Z,81
2023-03-19T01:25:09.786Z,82
2023-03-19T01:27:06.121Z,82
2023-03-19T01:29:06.503Z,81
2023-03-19T01:31:06.539Z,82
2023-03-19T01:33:06.610Z,82
2023-03-19T01:35:09.571Z,82
2023-03-19T01:37:08.207Z,81
2023-03-19T01:39:06.107Z,81
2023-03-19T01:41:06.442Z,82
2023-03-19T01:43:06.493Z,82
2023-03-19T01:45:06.294Z,82
2023-03-19T01:47:06.507Z,82
2023-03-19T01:49:06.475Z,82
2023-03-19T01:51:06.787Z,82
2023-03-19T01:53:10.747Z,82
2023-03-19T01:55:06.516Z,82
2023-03-19T01:57:06.084Z,82
2023-03-19T01:59:06.543Z,82
2023-03-19T02:01:06.473Z,82
2023-03-19T02:03:04.498Z,82
2023-03-19T02:05:06.470Z,82
2023-03-19T02:07:06.537Z,82
2023-03-19T02:09:06.275Z,83
2023-03-19T02:11:06.319Z,83
2023-03-19T02:13:06.552Z,83
2023-03-19T02:15:09.481Z,83
2023-03-19T02:17:06.506Z,83
2023-03-19T02:19:12.634Z,83
2023-03-19T02:21:09.611Z,82
2023-03-19T02:23:06.449Z,82
2023-03-19T02:25:09.721Z,83
2023-03-19T02:27:06.548Z,83
2023-03-19T02:29:06.479Z,83
2023-03-19T02:31:06.997Z,83
2023-03-19T02:33:05.832Z,83
2023-03-19T02:35:06.535Z,83
2023-03-19T02:37:09.608Z,83
2023-03-19T02:39:08.032Z,83
2023-03-19T02:41:06.385Z,83
2023-03-19T02:43:06.761Z,83
2023-03-19T02:45:06.488Z,82
2023-03-19T02:47:06.530Z,83
2023-03-19T02:49:06.529Z,83
2023-03-19T02:51:06.460Z,83
2023-03-19T02:53:12.361Z,83
2023-03-19T02:55:08.649Z,83
2023-03-19T02:57:06.238Z,83
2023-03-19T02:59:06.770Z,83
2023-03-19T03:01:09.578Z,83
2023-03-19T03:03:12.858Z,83
2023-03-19T03:05:06.459Z,83
2023-03-19T03:09:06.479Z,83
2023-03-19T03:11:09.934Z,83
2023-03-19T03:13:08.035Z,83
2023-03-19T03:15:12.556Z,83
2023-03-19T03:17:08.564Z,83
2023-03-19T03:19:09.569Z,83
2023-03-19T03:23:06.063Z,83
2023-03-19T03:25:06.503Z,83
2023-03-19T03:27:06.568Z,83
2023-03-19T03:29:10.535Z,83
2023-03-19T03:31:09.614Z,83
2023-03-19T03:33:06.519Z,82
2023-03-19T03:35:10.472Z,82
2023-03-19T03:37:06.605Z,83
2023-03-19T03:39:12.640Z,82
2023-03-19T03:41:06.500Z,82
2023-03-19T03:43:07.724Z,82
2023-03-19T03:45:06.103Z,82
2023-03-19T03:49:06.507Z,83
2023-03-19T03:51:06.556Z,83
2023-03-19T03:53:06.772Z,82
2023-03-19T03:55:05.816Z,82
2023-03-19T03:57:09.612Z,82
2023-03-19T03:59:09.542Z,82
2023-03-19T04:01:06.509Z,82
2023-03-19T04:03:09.564Z,81
2023-03-19T04:05:06.240Z,82
2023-03-19T04:07:06.588Z,82
2023-03-19T04:09:06.794Z,83
2023-03-19T04:11:06.538Z,83
2023-03-19T04:13:12.604Z,82
2023-03-19T04:15:06.080Z,82
2023-03-19T04:17:06.055Z,82
2023-03-19T04:19:06.502Z,81
2023-03-19T04:21:07.556Z,83
2023-03-19T04:25:06.139Z,84
2023-03-19T04:27:06.567Z,84
2023-03-19T04:29:06.457Z,84
2023-03-19T04:31:06.509Z,84
2023-03-19T04:33:03.311Z,84
2023-03-19T04:35:06.478Z,84
2023-03-19T04:37:09.388Z,84
2023-03-19T04:39:06.081Z,84
2023-03-19T04:41:06.096Z,83
2023-03-19T04:43:06.539Z,83
2023-03-19T04:45:06.459Z,83
2023-03-19T04:47:06.617Z,83
2023-03-19T04:49:06.594Z,83
2023-03-19T04:51:05.854Z,83
2023-03-19T04:53:06.515Z,83
2023-03-19T04:55:09.817Z,83
2023-03-19T04:57:06.592Z,84
2023-03-19T04:59:06.138Z,83
2023-03-19T05:01:06.556Z,84
2023-03-19T05:03:06.464Z,84
2023-03-19T05:05:06.296Z,83
2023-03-19T05:07:06.574Z,84
2023-03-19T05:09:08.028Z,84
2023-03-19T05:11:09.803Z,84
2023-03-19T05:13:06.530Z,84
2023-03-19T05:15:06.511Z,84
2023-03-19T05:17:06.495Z,84
2023-03-19T05:19:06.517Z,84
2023-03-19T05:21:06.550Z,84
2023-03-19T05:23:06.569Z,84
2023-03-19T05:25:06.125Z,84
2023-03-19T05:27:08.067Z,84
2023-03-19T05:29:06.473Z,84
2023-03-19T05:31:05.862Z,84
2023-03-19T05:33:06.859Z,84
2023-03-19T05:35:06.524Z,84
2023-03-19T05:37:06.072Z,83
2023-03-19T05:39:06.509Z,84
2023-03-19T05:41:06.508Z,83
2023-03-19T05:43:06.549Z,83
2023-03-19T05:45:06.354Z,83
2023-03-19T05:47:10.133Z,83
2023-03-19T05:49:06.471Z,83
2023-03-19T05:51:06.540Z,83
2023-03-19T05:53:06.515Z,82
2023-03-19T05:55:06.602Z,82
2023-03-19T05:57:06.170Z,82
2023-03-19T05:59:05.795Z,82
2023-03-19T06:01:06.517Z,82
2023-03-19T06:03:06.608Z,82
2023-03-19T06:05:06.541Z,82
2023-03-19T06:07:08.103Z,82
2023-03-19T06:09:06.506Z,82
2023-03-19T06:11:06.216Z,81
2023-03-19T06:13:06.536Z,81
2023-03-19T06:15:06.505Z,82
2023-03-19T06:17:06.405Z,82
2023-03-19T06:19:06.509Z,82
2023-03-19T06:21:06.123Z,82
2023-03-19T06:23:06.545Z,82
2023-03-19T06:25:06.605Z,82
2023-03-19T06:29:06.520Z,83
2023-03-19T06:31:04.609Z,83
2023-03-19T06:35:09.773Z,82
2023-03-19T06:37:06.755Z,82
2023-03-19T06:39:06.565Z,82
2023-03-19T06:41:06.079Z,83
2023-03-19T06:43:06.344Z,83
2023-03-19T06:45:06.549Z,82
2023-03-19T06:47:03.282Z,83
2023-03-19T06:49:06.516Z,83
2023-03-19T06:51:10.184Z,83
2023-03-19T06:53:06.555Z,83
2023-03-19T06:55:06.596Z,83
2023-03-19T06:57:06.599Z,83
2023-03-19T06:59:11.274Z,83
2023-03-19T07:01:06.706Z,83
2023-03-19T07:03:06.576Z,84
2023-03-19T07:05:06.499Z,84
2023-03-19T07:07:04.567Z,84
2023-03-19T07:09:08.101Z,84
2023-03-19T07:11:11.245Z,84
2023-03-19T07:13:06.557Z,84
2023-03-19T07:15:06.508Z,85
2023-03-19T07:17:07.545Z,84
2023-03-19T07:19:06.548Z,85
2023-03-19T07:21:05.867Z,85
2023-03-19T07:23:06.561Z,85
2023-03-19T07:25:07.673Z,85
2023-03-19T07:27:06.529Z,85
2023-03-19T07:29:03.445Z,85
2023-03-19T07:31:06.622Z,86
2023-03-19T07:33:09.063Z,86
2023-03-19T07:35:09.622Z,86
2023-03-19T07:37:06.813Z,86
2023-03-19T07:41:03.573Z,86
2023-03-19T07:43:06.136Z,86
2023-03-19T07:45:08.047Z,86
2023-03-19T07:47:08.167Z,87
2023-03-19T07:49:08.123Z,86
2023-03-19T07:51:06.505Z,86
2023-03-19T07:53:08.166Z,86
2023-03-19T07:55:09.883Z,86
2023-03-19T07:57:06.602Z,86
2023-03-19T07:59:04.533Z,86
2023-03-19T08:01:06.558Z,86
2023-03-19T08:03:09.631Z,86
2023-03-19T08:05:06.518Z,85
2023-03-19T08:07:06.606Z,85
2023-03-19T08:09:11.174Z,85
2023-03-19T08:11:06.525Z,86
2023-03-19T08:13:06.111Z,86
2023-03-19T08:15:12.749Z,85
2023-03-19T08:17:06.846Z,85
2023-03-19T08:21:04.571Z,85
2023-03-19T08:23:06.132Z,85
2023-03-19T08:25:04.615Z,85
2023-03-19T08:27:09.617Z,85
2023-03-19T08:29:06.532Z,85
2023-03-19T08:31:06.639Z,85
2023-03-19T08:33:06.211Z,85
2023-03-19T08:35:04.630Z,85
2023-03-19T08:37:06.569Z,85
2023-03-19T08:39:06.635Z,85
2023-03-19T08:41:06.544Z,85
2023-03-19T08:43:08.386Z,85
2023-03-19T08:45:09.643Z,85
2023-03-19T08:47:06.825Z,86
2023-03-19T08:49:06.504Z,85
2023-03-19T08:51:09.710Z,86
2023-03-19T08:53:06.171Z,86
2023-03-19T08:55:06.567Z,85
2023-03-19T08:57:09.688Z,85
2023-03-19T08:59:06.599Z,85
2023-03-19T09:01:09.274Z,85
2023-03-19T09:03:06.171Z,85
2023-03-19T09:05:08.082Z,85
2023-03-19T09:07:09.395Z,84
2023-03-19T09:09:06.527Z,84
2023-03-19T09:11:12.952Z,84
2023-03-19T09:13:06.654Z,84
2023-03-19T09:15:06.608Z,84
2023-03-19T09:17:06.585Z,84
2023-03-19T09:19:09.303Z,84
2023-03-19T09:21:06.351Z,83
2023-03-19T09:23:09.436Z,84
2023-03-19T09:25:06.658Z,83
2023-03-19T09:27:06.633Z,83
2023-03-19T09:29:09.943Z,83
2023-03-19T09:31:09.494Z,83
2023-03-19T09:33:06.170Z,83
2023-03-19T09:35:06.550Z,84
2023-03-19T09:37:06.843Z,83
2023-03-19T09:39:09.936Z,83
2023-03-19T09:41:06.553Z,83
2023-03-19T09:43:06.070Z,83
2023-03-19T09:45:09.635Z,83
2023-03-19T09:47:06.702Z,83
2023-03-19T09:49:09.530Z,84
2023-03-19T09:51:06.768Z,83
2023-03-19T09:53:06.149Z,83
2023-03-19T09:55:06.636Z,83
2023-03-19T09:57:06.844Z,83
2023-03-19T09:59:09.671Z,84
2023-03-19T10:01:10.305Z,84
2023-03-19T10:03:07.344Z,83
2023-03-19T10:05:07.758Z,83
2023-03-19T10:07:06.573Z,83
2023-03-19T10:09:06.883Z,83
2023-03-19T10:11:06.578Z,83
2023-03-19T10:13:06.090Z,83
2023-03-19T10:15:06.683Z,83
2023-03-19T10:17:06.171Z,83
2023-03-19T10:19:06.698Z,82
2023-03-19T10:21:12.728Z,82
2023-03-19T10:23:09.415Z,82
2023-03-19T10:25:09.770Z,82
2023-03-19T10:27:09.566Z,82
2023-03-19T10:29:06.582Z,81
2023-03-19T10:31:06.600Z,81
2023-03-19T10:33:06.146Z,80
2023-03-19T10:35:09.643Z,80
2023-03-19T10:37:09.622Z,81
2023-03-19T10:39:06.572Z,80
2023-03-19T10:41:06.598Z,80
2023-03-19T10:43:06.111Z,80
2023-03-19T10:45:12.817Z,80
2023-03-19T10:47:11.355Z,80
2023-03-19T10:49:06.491Z,80
2023-03-19T10:51:06.535Z,80
2023-03-19T10:53:08.434Z,79
2023-03-19T10:55:06.683Z,80
2023-03-19T10:57:06.580Z,80
2023-03-19T10:59:06.505Z,79
2023-03-19T11:01:06.774Z,79
2023-03-19T11:03:06.151Z,79
2023-03-19T11:05:06.563Z,78
2023-03-19T11:07:12.736Z,78
2023-03-19T11:09:06.583Z,78
2023-03-19T11:11:06.528Z,78
2023-03-19T11:13:06.148Z,77
2023-03-19T11:15:08.155Z,76
2023-03-19T11:17:06.707Z,76
2023-03-19T11:19:09.453Z,76
2023-03-19T11:21:06.567Z,76
2023-03-19T11:23:06.125Z,75
2023-03-19T11:25:06.721Z,75
2023-03-19T11:27:06.539Z,75
2023-03-19T11:31:06.577Z,75
2023-03-19T11:33:06.169Z,74
2023-03-19T11:35:12.644Z,74
2023-03-19T11:37:06.501Z,73
2023-03-19T11:39:06.605Z,73
2023-03-19T11:41:06.622Z,74
2023-03-19T11:43:06.232Z,75
2023-03-19T11:45:06.539Z,75
2023-03-19T11:47:21.138Z,74
2023-03-19T11:49:09.627Z,74
2023-03-19T11:51:08.046Z,74
2023-03-19T11:53:06.082Z,73
2023-03-19T11:55:09.654Z,72
2023-03-19T11:59:06.708Z,72
2023-03-19T12:01:06.602Z,73
2023-03-19T12:03:06.265Z,74
2023-03-19T12:05:06.567Z,74
2023-03-19T12:07:12.926Z,74
2023-03-19T12:09:06.917Z,73
2023-03-19T12:11:09.502Z,74
2023-03-19T12:13:06.084Z,75
2023-03-19T12:15:08.455Z,72
2023-03-19T12:17:06.735Z,71
2023-03-19T12:19:06.878Z,73
2023-03-19T12:21:05.963Z,71
2023-03-19T12:23:06.065Z,69
2023-03-19T12:25:06.535Z,71
2023-03-19T12:27:06.569Z,71
2023-03-19T12:29:06.549Z,72
2023-03-19T12:31:10.015Z,72
2023-03-19T12:33:06.103Z,74
2023-03-19T12:35:12.904Z,73
2023-03-19T12:37:10.091Z,74
2023-03-19T12:39:06.549Z,74
2023-03-19T12:41:06.563Z,72
2023-03-19T12:43:06.114Z,72
2023-03-19T12:45:06.590Z,72
2023-03-19T12:47:06.590Z,73
2023-03-19T12:49:06.573Z,73
2023-03-19T12:53:06.097Z,72
2023-03-19T12:55:06.805Z,72
2023-03-19T12:57:06.084Z,72
2023-03-19T12:59:09.463Z,71
2023-03-19T13:01:06.623Z,70
2023-03-19T13:03:06.187Z,71
2023-03-19T13:05:06.427Z,70
2023-03-19T13:07:06.494Z,71
2023-03-19T13:09:07.038Z,71
2023-03-19T13:11:11.117Z,70
2023-03-19T13:13:06.164Z,71
2023-03-19T13:15:06.044Z,71
2023-03-19T13:17:08.124Z,70
2023-03-19T13:19:06.575Z,71
2023-03-19T13:21:10.170Z,72
2023-03-19T13:23:06.125Z,69
2023-03-19T13:25:09.454Z,69
2023-03-19T13:27:06.543Z,69
2023-03-19T13:29:06.577Z,69
2023-03-19T13:31:08.147Z,71
2023-03-19T13:33:06.208Z,70
2023-03-19T13:35:06.089Z,72
2023-03-19T13:41:06.651Z,68
2023-03-19T13:43:13.118Z,69
2023-03-19T13:45:09.641Z,69
2023-03-19T13:47:06.562Z,68
2023-03-19T13:49:06.544Z,67
2023-03-19T13:51:08.887Z,67
2023-03-19T13:53:06.738Z,68
2023-03-19T13:55:03.436Z,67
2023-03-19T13:57:06.178Z,70
2023-03-19T13:59:06.558Z,69
2023-03-19T14:03:06.747Z,66
2023-03-19T14:05:06.492Z,67
2023-03-19T14:07:06.105Z,67
2023-03-19T14:09:06.622Z,67
2023-03-19T14:11:06.586Z,67
2023-03-19T14:13:04.634Z,67
2023-03-19T14:15:06.637Z,67
2023-03-19T14:17:06.223Z,67
2023-03-19T14:19:06.561Z,67
2023-03-19T14:21:08.736Z,67
2023-03-19T14:23:06.613Z,67
2023-03-19T14:25:06.563Z,67
2023-03-19T14:27:06.262Z,67
2023-03-19T14:29:06.620Z,66
2023-03-19T14:31:06.573Z,66
2023-03-19T14:33:06.710Z,67
2023-03-19T14:35:03.619Z,66
2023-03-19T14:37:06.183Z,66
2023-03-19T14:39:09.645Z,67
2023-03-19T14:41:06.869Z,66
2023-03-19T14:43:06.623Z,65
2023-03-19T14:45:06.490Z,65
2023-03-19T14:47:06.175Z,66
2023-03-19T14:49:06.658Z,66
2023-03-19T14:51:06.598Z,67
2023-03-19T14:53:06.350Z,68
2023-03-19T14:55:06.365Z,68
2023-03-19T14:57:06.449Z,68
2023-03-19T14:59:06.634Z,69
2023-03-19T15:01:06.910Z,66
2023-03-19T15:03:05.869Z,66
2023-03-19T15:05:06.686Z,66
2023-03-19T15:07:07.744Z,66
2023-03-19T15:09:06.649Z,66
2023-03-19T15:11:06.376Z,66
2023-03-19T15:13:06.591Z,66
2023-03-19T15:15:06.894Z,66
2023-03-19T15:17:06.287Z,65
2023-03-19T15:19:09.700Z,65
2023-03-19T15:21:06.550Z,65
2023-03-19T15:23:13.484Z,66
2023-03-19T15:25:06.581Z,67
2023-03-19T15:27:06.271Z,64
2023-03-19T15:29:11.669Z,65
2023-03-19T15:31:25.746Z,64
2023-03-19T15:33:12.284Z,66
2023-03-19T15:35:06.897Z,63
2023-03-19T15:37:06.191Z,63
2023-03-19T15:39:06.697Z,63
2023-03-19T15:41:06.671Z,62
2023-03-19T15:43:09.320Z,63
2023-03-19T15:45:06.558Z,62
2023-03-19T15:47:06.150Z,61
2023-03-19T15:49:09.625Z,62
2023-03-19T15:51:06.680Z,62
2023-03-19T15:55:09.716Z,62
2023-03-19T15:57:06.700Z,63
2023-03-19T15:59:06.131Z,63
2023-03-19T16:01:06.407Z,63
2023-03-19T16:03:06.583Z,63
2023-03-19T16:05:21.305Z,64
2023-03-19T16:07:06.415Z,63
2023-03-19T16:09:09.075Z,63
2023-03-19T16:11:06.596Z,63
2023-03-19T16:13:06.871Z,63
2023-03-19T16:15:06.728Z,63
2023-03-19T16:17:06.424Z,63
2023-03-19T16:19:06.159Z,64
2023-03-19T16:21:06.673Z,64
2023-03-19T16:23:06.614Z,64
2023-03-19T16:25:10.494Z,64
2023-03-19T16:27:06.606Z,64
2023-03-19T16:29:05.855Z,65
2023-03-19T16:31:10.000Z,65
2023-03-19T16:33:06.660Z,65
2023-03-19T16:35:06.623Z,65
2023-03-19T16:37:06.617Z,66
2023-03-19T16:39:06.586Z,67
2023-03-19T16:41:03.612Z,67
2023-03-19T16:43:06.168Z,67
2023-03-19T16:45:06.589Z,67
2023-03-19T16:47:06.584Z,68
2023-03-19T16:49:09.395Z,68
2023-03-19T16:51:08.034Z,68
2023-03-19T16:53:06.194Z,69
2023-03-19T16:55:09.701Z,68
2023-03-19T16:57:06.629Z,69
2023-03-19T16:59:06.579Z,69
2023-03-19T17:01:12.453Z,71
2023-03-19T17:03:06.126Z,72
2023-03-19T17:05:07.175Z,72
2023-03-19T17:07:06.707Z,72
2023-03-19T17:09:03.391Z,73
2023-03-19T17:11:09.003Z,73
2023-03-19T17:13:06.179Z,77
2023-03-19T17:15:06.582Z,76
2023-03-19T17:17:06.636Z,75
2023-03-19T17:19:09.476Z,75
2023-03-19T17:21:07.323Z,75
2023-03-19T17:23:06.323Z,75
2023-03-19T17:25:06.586Z,75
2023-03-19T17:27:05.858Z,75
2023-03-19T17:29:06.562Z,76
2023-03-19T17:31:09.477Z,77
2023-03-19T17:33:09.734Z,77
2023-03-19T17:35:06.623Z,76
2023-03-19T17:37:06.571Z,77
2023-03-19T17:39:09.880Z,78
2023-03-19T17:41:06.622Z,78
2023-03-19T17:43:06.646Z,79
2023-03-19T17:45:06.586Z,80
2023-03-19T17:47:06.186Z,80
2023-03-19T17:49:06.618Z,81
2023-03-19T17:51:12.484Z,82
2023-03-19T17:53:06.899Z,81
2023-03-19T17:55:06.667Z,81
2023-03-19T17:57:06.227Z,82
2023-03-19T17:59:09.584Z,82
2023-03-19T18:01:06.697Z,83
2023-03-19T18:03:06.670Z,83
2023-03-19T18:05:06.707Z,83
2023-03-19T18:07:06.019Z,83
2023-03-19T18:09:06.292Z,83
2023-03-19T18:13:07.487Z,82
2023-03-19T18:15:06.358Z,82
2023-03-19T18:17:06.593Z,83
2023-03-19T18:19:07.726Z,83
2023-03-19T18:21:09.421Z,83
2023-03-19T18:23:06.609Z,83
2023-03-19T18:25:06.745Z,83
2023-03-19T18:27:06.677Z,83
2023-03-19T18:31:06.601Z,83
2023-03-19T18:33:06.805Z,84
2023-03-19T18:35:06.547Z,84
2023-03-19T18:37:08.210Z,84
2023-03-19T18:39:06.285Z,84
2023-03-19T18:41:06.460Z,85
2023-03-19T18:43:09.453Z,86
2023-03-19T18:45:08.158Z,85
2023-03-19T18:47:07.744Z,86
2023-03-19T18:49:06.185Z,86
2023-03-19T18:51:08.198Z,86
2023-03-19T18:53:06.643Z,86
2023-03-19T18:55:06.864Z,86
2023-03-19T18:57:06.638Z,87
2023-03-19T18:59:06.189Z,87
2023-03-19T19:01:09.771Z,87
2023-03-19T19:03:06.639Z,87
2023-03-19T19:05:09.860Z,87
2023-03-19T19:07:09.107Z,87
2023-03-19T19:09:06.579Z,87
2023-03-19T19:11:08.204Z,87
2023-03-19T19:15:09.621Z,86
2023-03-19T19:17:06.599Z,87
2023-03-19T19:19:09.624Z,87
2023-03-19T19:21:06.172Z,87
2023-03-19T19:23:06.616Z,87
2023-03-19T19:25:06.658Z,87
2023-03-19T19:27:06.595Z,87
2023-03-19T19:31:06.666Z,87
2023-03-19T19:33:05.931Z,87
2023-03-19T19:35:06.151Z,87
2023-03-19T19:37:06.623Z,87
2023-03-19T19:39:06.608Z,87
2023-03-19T19:41:07.774Z,86
2023-03-19T19:43:06.574Z,86
2023-03-19T19:45:09.899Z,86
2023-03-19T19:47:09.716Z,86
2023-03-19T19:49:06.842Z,86
2023-03-19T19:51:09.686Z,86
2023-03-19T19:53:06.093Z,86
2023-03-19T19:55:06.632Z,85
2023-03-19T19:57:06.636Z,85
2023-03-19T19:59:06.618Z,85
2023-03-19T20:01:06.708Z,84
2023-03-19T20:03:09.756Z,85
2023-03-19T20:05:06.240Z,85
2023-03-19T20:07:09.376Z,85
2023-03-19T20:11:07.026Z,85
2023-03-19T20:13:07.921Z,86
2023-03-19T20:15:06.245Z,86
2023-03-19T20:17:04.847Z,87
2023-03-19T20:19:06.625Z,88
2023-03-19T20:21:06.634Z,88
2023-03-19T20:23:06.630Z,88
2023-03-19T20:25:08.151Z,88
2023-03-19T20:27:08.175Z,88
2023-03-19T20:29:06.154Z,87
2023-03-19T20:31:06.616Z,88
2023-03-19T20:33:09.710Z,88
2023-03-19T20:35:09.748Z,88
2023-03-19T20:37:06.645Z,88
2023-03-19T20:39:08.073Z,88
2023-03-19T20:41:06.217Z,88
2023-03-19T20:43:06.639Z,88
2023-03-19T20:45:06.892Z,87
2023-03-19T20:47:09.636Z,88
2023-03-19T20:49:06.596Z,88
2023-03-19T20:51:06.733Z,88
2023-03-19T20:53:06.621Z,88
2023-03-19T20:55:06.418Z,88
2023-03-19T20:57:06.595Z,88
2023-03-19T20:59:11.077Z,87
2023-03-19T21:01:06.128Z,87
2023-03-19T21:03:09.724Z,87
2023-03-19T21:05:07.660Z,87
2023-03-19T21:07:06.587Z,87
2023-03-19T21:11:06.609Z,86
2023-03-19T21:13:06.574Z,86
2023-03-19T21:15:06.620Z,86
2023-03-19T21:17:09.664Z,86
2023-03-19T21:19:06.597Z,87
2023-03-19T21:23:06.604Z,87
2023-03-19T21:25:06.371Z,87
2023-03-19T21:27:06.651Z,87
2023-03-19T21:29:06.589Z,87
2023-03-19T21:31:06.614Z,87
2023-03-19T21:33:06.947Z,87
2023-03-19T21:35:07.107Z,87
2023-03-19T21:37:06.603Z,87
2023-03-19T21:41:06.674Z,87
2023-03-19T21:43:09.900Z,87
2023-03-19T21:45:06.656Z,87
2023-03-19T21:47:06.955Z,87
2023-03-19T21:49:09.935Z,87
2023-03-19T21:51:06.708Z,87
2023-03-19T21:53:06.701Z,87
2023-03-19T21:55:08.688Z,87
2023-03-19T21:57:10.601Z,87
2023-03-19T21:59:08.243Z,87
2023-03-19T22:01:09.678Z,87
2023-03-19T22:03:06.671Z,87
2023-03-19T22:05:08.949Z,87
2023-03-19T22:07:06.563Z,87
2023-03-19T22:09:06.603Z,87
2023-03-19T22:11:06.363Z,87
2023-03-19T22:13:06.674Z,87
2023-03-19T22:15:04.698Z,87
2023-03-19T22:19:06.565Z,87
2023-03-19T22:21:07.011Z,87
2023-03-19T22:23:06.855Z,87
2023-03-19T22:25:08.165Z,87
2023-03-19T22:27:06.428Z,87
2023-03-19T22:29:09.407Z,87
2023-03-19T22:31:06.813Z,87
2023-03-19T22:33:09.728Z,87
2023-03-19T22:35:06.874Z,87
2023-03-19T22:37:05.968Z,87
2023-03-19T22:39:06.662Z,87
2023-03-19T22:41:06.626Z,87
2023-03-19T22:43:09.475Z,87
2023-03-19T22:45:06.599Z,87
2023-03-19T22:47:09.731Z,87
2023-03-19T22:49:06.336Z,87
2023-03-19T22:51:06.614Z,87
2023-03-19T22:55:06.600Z,87
2023-03-19T22:59:07.758Z,87
2023-03-19T23:01:09.658Z,87
2023-03-19T23:03:06.608Z,87
2023-03-19T23:05:06.627Z,88
2023-03-19T23:07:06.854Z,88
2023-03-19T23:09:06.257Z,88
2023-03-19T23:11:06.688Z,88
2023-03-19T23:13:06.592Z,88
2023-03-19T23:15:07.397Z,88
2023-03-19T23:17:09.026Z,88
2023-03-19T23:19:06.594Z,88
2023-03-19T23:21:06.653Z,88
2023-03-19T23:23:06.597Z,88
2023-03-19T23:25:06.657Z,88
2023-03-19T23:27:06.965Z,88
2023-03-19T23:29:06.288Z,88
2023-03-19T23:31:06.667Z,88
2023-03-19T23:33:06.662Z,88
2023-03-19T23:35:08.191Z,88
2023-03-19T23:37:06.588Z,88
2023-03-19T23:39:06.288Z,88
2023-03-19T23:41:06.586Z,88
2023-03-19T23:43:06.735Z,88
2023-03-19T23:45:06.583Z,88
2023-03-19T23:47:09.784Z,88
2023-03-19T23:49:06.771Z,88
2023-03-19T23:51:06.230Z,88
2023-03-19T23:53:06.608Z,88
2023-03-19T23:55:07.009Z,88
2023-03-19T23:57:07.953Z,88
2023-03-19T23:59:06.676Z,88
